Oak Grove, MO

10:49 PM CDT on August 28, 2015 (GMT -0500)
Hedge Hill Estates | | Change Station
CLOSE
Current Station
Personal Weather Station
Location: Bates City, MO
Elevation: 902 ft
Nearby Weather Stations

Elev 902 ft 38.98 °N, 94.07 °W | Updated 4 minutes ago

Overcast
Overcast
72.1 °F
Feels Like 71 °F
N
3.8
Wind Variable Wind from South
Gusts 7.6 mph

Today
High -- | Low -- °F
--% Chance of Precip.
Yesterday
High -- | Low -- °F
Precip. -- in
6:41 AM 7:53 PM
Waxing Gibbous, 99% visible
Pressure 29.95 in
Visibility 10.0 miles
Clouds Few 5000 ft
Few 7500 ft
Mostly Cloudy 11000 ft
Heat Index 71 °F
Dew Point 67 °F
Humidity 85%
Rainfall 0.00 in
Snow Depth Not available.
UV 0 out of 12
Pollen 4.70 out of 12
Air Quality Not available.
Flu Activity Not available.
SPECI KLXT 290310Z AUTO 21007KT 10SM -TSRA FEW050 FEW075 BKN110 22/19 A2995 RMK AO2 LTG DSNT N AND NW TSB04 P0000 T02220194
Pressure 29.95 in
Visibility 10.0 miles
Clouds Few 5000 ft
Few 7500 ft
Mostly Cloudy 11000 ft
Heat Index 71 °F
Dew Point 67 °F
Humidity 85%
Rainfall 0.00 in
Snow Depth Not available.
UV 0 out of 12
Pollen 4.70 out of 12
Air Quality Not available.
Flu Activity Not available.
SPECI KLXT 290310Z AUTO 21007KT 10SM -TSRA FEW050 FEW075 BKN110 22/19 A2995 RMK AO2 LTG DSNT N AND NW TSB04 P0000 T02220194

10-Day Weather Forecast

×

Almanac

Astronomy

Aug. 28, 2015 Rise Set
Actual Time
Civil Twilight
Nautical Twilight
Astronomical Twilight
Moon
Length of Visible Light
Length of Day
Tomorrow will be .
, % of the Moon is Illuminated

Today's Extremes

State Highs State Lows

Community

WunderPhotos

Upload Photos

1,850,609 photos uploaded!

WunderBlogs® & News

Nearby

Air Quality

  Air Quality AQ Index Pollutant
Not available.

Snow Depth

Station Depth Elevation

Earthquake Activity

City Distance Mag. Time & Date
Minimum magnitude displayed is 2.5.

Coastal Water Temperatures

Place Temperature

Stations

Nearby Weather Stations

Station Location Temp. Windchill Dew Point Humidity Wind Precip. Elev Updated Type